Weather at Prince Albert Glass Field

Public forecast

Using degrees Celsius for public forecast. Weather courtesy of forecast.io.

Current aviation weather report (METAR) for Prince Albert Glass Field

Retrieved 2021/05/11 04:00 UTC (29 minutes ago):

CYPA 110400Z 07002KT 15SM SCT220 BKN270 06/M10 A3016 RMK CI3CI5 SLP230

Aviation forecast (TAF) for Prince Albert Glass Field

Retrieved 2021-05-11 01:42 UTC (3 hours ago):

TAF CYPA 110038Z 1101/1113 19008KT P6SM SCT250 BECMG 1102/1104 VRB03KT RMK NXT FCST BY 110700Z